sensor_id;sensor_type;location;lat;lon;timestamp;P1;durP1;ratioP1;P2;durP2;ratioP2
71435;SDS011;59251;51.326;12.370;2023-01-28T00:01:04;9.17;;;2.23;;
71435;SDS011;59251;51.326;12.370;2023-01-28T00:03:34;9.17;;;2.60;;
71435;SDS011;59251;51.326;12.370;2023-01-28T00:06:03;7.50;;;2.28;;
71435;SDS011;59251;51.326;12.370;2023-01-28T00:08:29;9.68;;;2.33;;
71435;SDS011;59251;51.326;12.370;2023-01-28T00:10:59;8.27;;;2.10;;
71435;SDS011;59251;51.326;12.370;2023-01-28T00:13:26;10.48;;;2.47;;
71435;SDS011;59251;51.326;12.370;2023-01-28T00:15:59;11.50;;;2.53;;
71435;SDS011;59251;51.326;12.370;2023-01-28T00:18:25;8.02;;;2.50;;
71435;SDS011;59251;51.326;12.370;2023-01-28T00:20:58;8.52;;;2.10;;
71435;SDS011;59251;51.326;12.370;2023-01-28T00:23:25;10.07;;;2.20;;
71435;SDS011;59251;51.326;12.370;2023-01-28T00:25:51;7.95;;;1.92;;
71435;SDS011;59251;51.326;12.370;2023-01-28T00:28:18;8.63;;;1.95;;
71435;SDS011;59251;51.326;12.370;2023-01-28T00:30:43;7.50;;;2.20;;
71435;SDS011;59251;51.326;12.370;2023-01-28T00:33:08;7.63;;;2.07;;
71435;SDS011;59251;51.326;12.370;2023-01-28T00:35:34;10.00;;;2.00;;
71435;SDS011;59251;51.326;12.370;2023-01-28T00:37:59;9.90;;;1.90;;
71435;SDS011;59251;51.326;12.370;2023-01-28T00:40:24;13.13;;;2.17;;
71435;SDS011;59251;51.326;12.370;2023-01-28T00:42:50;8.23;;;2.10;;
71435;SDS011;59251;51.326;12.370;2023-01-28T00:45:15;7.07;;;1.80;;
71435;SDS011;59251;51.326;12.370;2023-01-28T00:47:40;7.87;;;2.30;;
71435;SDS011;59251;51.326;12.370;2023-01-28T00:50:06;7.63;;;1.93;;
71435;SDS011;59251;51.326;12.370;2023-01-28T00:52:32;8.77;;;2.25;;
71435;SDS011;59251;51.326;12.370;2023-01-28T00:54:57;8.30;;;2.10;;
71435;SDS011;59251;51.326;12.370;2023-01-28T00:57:22;9.07;;;1.87;;
71435;SDS011;59251;51.326;12.370;2023-01-28T00:59:48;9.33;;;1.87;;
71435;SDS011;59251;51.326;12.370;2023-01-28T01:02:13;7.07;;;2.23;;
71435;SDS011;59251;51.326;12.370;2023-01-28T01:04:39;10.53;;;2.20;;
71435;SDS011;59251;51.326;12.370;2023-01-28T01:07:04;9.98;;;2.20;;
71435;SDS011;59251;51.326;12.370;2023-01-28T01:09:30;7.28;;;1.70;;
71435;SDS011;59251;51.326;12.370;2023-01-28T01:11:56;6.07;;;1.90;;
71435;SDS011;59251;51.326;12.370;2023-01-28T01:14:21;7.07;;;1.97;;
71435;SDS011;59251;51.326;12.370;2023-01-28T01:16:47;10.10;;;2.50;;
71435;SDS011;59251;51.326;12.370;2023-01-28T01:19:12;9.57;;;2.37;;
71435;SDS011;59251;51.326;12.370;2023-01-28T01:21:37;7.20;;;1.60;;
71435;SDS011;59251;51.326;12.370;2023-01-28T01:24:03;8.95;;;2.33;;
71435;SDS011;59251;51.326;12.370;2023-01-28T01:26:28;8.20;;;1.80;;
71435;SDS011;59251;51.326;12.370;2023-01-28T01:28:54;9.20;;;2.10;;
71435;SDS011;59251;51.326;12.370;2023-01-28T01:31:20;7.90;;;1.80;;
71435;SDS011;59251;51.326;12.370;2023-01-28T01:33:47;8.73;;;1.90;;
71435;SDS011;59251;51.326;12.370;2023-01-28T01:36:14;10.45;;;2.13;;
71435;SDS011;59251;51.326;12.370;2023-01-28T01:38:41;8.77;;;2.40;;
71435;SDS011;59251;51.326;12.370;2023-01-28T01:41:06;7.30;;;1.97;;
71435;SDS011;59251;51.326;12.370;2023-01-28T01:46:19;9.05;;;2.08;;
71435;SDS011;59251;51.326;12.370;2023-01-28T01:48:49;8.35;;;2.03;;
71435;SDS011;59251;51.326;12.370;2023-01-28T01:51:18;7.87;;;1.70;;
71435;SDS011;59251;51.326;12.370;2023-01-28T01:53:49;8.43;;;1.77;;
71435;SDS011;59251;51.326;12.370;2023-01-28T01:56:18;8.25;;;1.73;;
71435;SDS011;59251;51.326;12.370;2023-01-28T01:58:47;10.00;;;2.00;;
71435;SDS011;59251;51.326;12.370;2023-01-28T02:01:18;10.60;;;2.05;;
71435;SDS011;59251;51.326;12.370;2023-01-28T02:03:51;7.93;;;2.10;;
71435;SDS011;59251;51.326;12.370;2023-01-28T02:06:21;8.70;;;1.90;;
71435;SDS011;59251;51.326;12.370;2023-01-28T02:08:47;8.95;;;1.80;;
71435;SDS011;59251;51.326;12.370;2023-01-28T02:11:13;7.93;;;1.90;;
71435;SDS011;59251;51.326;12.370;2023-01-28T02:13:42;7.20;;;1.90;;
71435;SDS011;59251;51.326;12.370;2023-01-28T02:16:11;9.80;;;1.70;;
71435;SDS011;59251;51.326;12.370;2023-01-28T02:18:37;7.03;;;1.90;;
71435;SDS011;59251;51.326;12.370;2023-01-28T02:21:07;8.30;;;2.30;;
71435;SDS011;59251;51.326;12.370;2023-01-28T02:24:01;9.70;;;2.10;;
71435;SDS011;59251;51.326;12.370;2023-01-28T02:26:41;8.17;;;2.10;;
71435;SDS011;59251;51.326;12.370;2023-01-28T02:29:36;9.70;;;2.10;;
71435;SDS011;59251;51.326;12.370;2023-01-28T02:32:19;8.30;;;1.60;;
71435;SDS011;59251;51.326;12.370;2023-01-28T02:34:55;6.93;;;1.50;;
71435;SDS011;59251;51.326;12.370;2023-01-28T02:37:33;8.00;;;2.03;;
71435;SDS011;59251;51.326;12.370;2023-01-28T02:40:07;9.30;;;1.70;;
71435;SDS011;59251;51.326;12.370;2023-01-28T02:42:36;6.55;;;2.08;;
71435;SDS011;59251;51.326;12.370;2023-01-28T02:45:10;8.23;;;2.10;;
71435;SDS011;59251;51.326;12.370;2023-01-28T02:47:40;11.98;;;2.60;;
71435;SDS011;59251;51.326;12.370;2023-01-28T02:50:58;9.20;;;2.10;;
71435;SDS011;59251;51.326;12.370;2023-01-28T02:53:24;8.37;;;1.90;;
71435;SDS011;59251;51.326;12.370;2023-01-28T02:56:13;9.90;;;2.30;;
71435;SDS011;59251;51.326;12.370;2023-01-28T02:58:52;7.47;;;2.22;;
71435;SDS011;59251;51.326;12.370;2023-01-28T03:01:45;6.43;;;2.00;;
71435;SDS011;59251;51.326;12.370;2023-01-28T03:07:11;9.17;;;2.70;;
71435;SDS011;59251;51.326;12.370;2023-01-28T03:09:39;7.25;;;2.08;;
71435;SDS011;59251;51.326;12.370;2023-01-28T03:12:08;9.73;;;2.40;;
71435;SDS011;59251;51.326;12.370;2023-01-28T03:17:51;11.23;;;2.20;;
71435;SDS011;59251;51.326;12.370;2023-01-28T03:20:42;8.53;;;2.70;;
71435;SDS011;59251;51.326;12.370;2023-01-28T03:26:57;8.00;;;1.92;;
71435;SDS011;59251;51.326;12.370;2023-01-28T03:29:47;10.15;;;2.22;;
71435;SDS011;59251;51.326;12.370;2023-01-28T03:32:34;9.43;;;2.05;;
71435;SDS011;59251;51.326;12.370;2023-01-28T03:35:19;12.60;;;3.17;;
71435;SDS011;59251;51.326;12.370;2023-01-28T03:38:05;9.45;;;2.40;;
71435;SDS011;59251;51.326;12.370;2023-01-28T03:40:54;8.43;;;2.75;;
71435;SDS011;59251;51.326;12.370;2023-01-28T03:43:21;9.68;;;2.38;;
71435;SDS011;59251;51.326;12.370;2023-01-28T03:45:47;10.07;;;2.43;;
71435;SDS011;59251;51.326;12.370;2023-01-28T03:48:19;9.25;;;2.58;;
71435;SDS011;59251;51.326;12.370;2023-01-28T03:50:46;10.15;;;2.40;;
71435;SDS011;59251;51.326;12.370;2023-01-28T03:53:12;9.15;;;2.80;;
71435;SDS011;59251;51.326;12.370;2023-01-28T03:55:39;9.20;;;2.25;;
71435;SDS011;59251;51.326;12.370;2023-01-28T03:58:05;10.00;;;2.10;;
71435;SDS011;59251;51.326;12.370;2023-01-28T04:00:30;10.40;;;3.10;;
71435;SDS011;59251;51.326;12.370;2023-01-28T04:02:57;9.75;;;1.92;;
71435;SDS011;59251;51.326;12.370;2023-01-28T04:05:22;9.95;;;2.13;;
71435;SDS011;59251;51.326;12.370;2023-01-28T04:07:49;8.70;;;2.60;;
71435;SDS011;59251;51.326;12.370;2023-01-28T04:10:15;9.30;;;2.47;;
71435;SDS011;59251;51.326;12.370;2023-01-28T04:12:41;10.55;;;2.22;;
71435;SDS011;59251;51.326;12.370;2023-01-28T04:15:06;8.87;;;2.80;;
71435;SDS011;59251;51.326;12.370;2023-01-28T04:17:39;6.88;;;1.60;;
71435;SDS011;59251;51.326;12.370;2023-01-28T04:20:08;9.97;;;2.00;;
71435;SDS011;59251;51.326;12.370;2023-01-28T04:22:34;11.00;;;2.53;;
71435;SDS011;59251;51.326;12.370;2023-01-28T04:25:00;8.33;;;1.80;;
71435;SDS011;59251;51.326;12.370;2023-01-28T04:27:25;6.13;;;1.73;;
71435;SDS011;59251;51.326;12.370;2023-01-28T04:29:50;7.82;;;1.63;;
71435;SDS011;59251;51.326;12.370;2023-01-28T04:32:16;8.35;;;1.85;;
71435;SDS011;59251;51.326;12.370;2023-01-28T04:34:41;6.80;;;1.77;;
71435;SDS011;59251;51.326;12.370;2023-01-28T04:37:06;8.07;;;1.90;;
71435;SDS011;59251;51.326;12.370;2023-01-28T04:39:32;8.10;;;1.70;;
71435;SDS011;59251;51.326;12.370;2023-01-28T04:41:57;7.90;;;1.63;;
71435;SDS011;59251;51.326;12.370;2023-01-28T04:44:22;9.13;;;1.90;;
71435;SDS011;59251;51.326;12.370;2023-01-28T04:46:48;8.13;;;2.10;;
71435;SDS011;59251;51.326;12.370;2023-01-28T04:49:13;7.18;;;1.90;;
71435;SDS011;59251;51.326;12.370;2023-01-28T04:51:38;8.23;;;1.40;;
71435;SDS011;59251;51.326;12.370;2023-01-28T04:54:04;7.37;;;1.63;;
71435;SDS011;59251;51.326;12.370;2023-01-28T04:56:29;9.83;;;1.80;;
71435;SDS011;59251;51.326;12.370;2023-01-28T04:58:55;7.07;;;1.90;;
71435;SDS011;59251;51.326;12.370;2023-01-28T05:01:20;8.57;;;1.57;;
71435;SDS011;59251;51.326;12.370;2023-01-28T05:03:45;8.70;;;1.97;;
71435;SDS011;59251;51.326;12.370;2023-01-28T05:06:11;7.23;;;2.33;;
71435;SDS011;59251;51.326;12.370;2023-01-28T05:08:36;8.13;;;1.70;;
71435;SDS011;59251;51.326;12.370;2023-01-28T05:11:01;7.07;;;1.77;;
71435;SDS011;59251;51.326;12.370;2023-01-28T05:13:27;8.03;;;1.60;;
71435;SDS011;59251;51.326;12.370;2023-01-28T05:15:52;6.27;;;1.97;;
71435;SDS011;59251;51.326;12.370;2023-01-28T05:18:18;6.73;;;1.80;;
71435;SDS011;59251;51.326;12.370;2023-01-28T05:20:44;10.77;;;1.63;;
71435;SDS011;59251;51.326;12.370;2023-01-28T05:23:09;9.53;;;1.77;;
71435;SDS011;59251;51.326;12.370;2023-01-28T05:25:35;9.50;;;2.20;;
71435;SDS011;59251;51.326;12.370;2023-01-28T05:28:00;7.72;;;1.92;;
71435;SDS011;59251;51.326;12.370;2023-01-28T05:30:26;9.93;;;2.30;;
71435;SDS011;59251;51.326;12.370;2023-01-28T05:32:54;8.13;;;1.97;;
71435;SDS011;59251;51.326;12.370;2023-01-28T05:35:20;8.77;;;2.50;;
71435;SDS011;59251;51.326;12.370;2023-01-28T05:37:46;9.63;;;2.47;;
71435;SDS011;59251;51.326;12.370;2023-01-28T05:40:12;7.90;;;1.92;;
71435;SDS011;59251;51.326;12.370;2023-01-28T05:42:37;8.50;;;1.93;;
71435;SDS011;59251;51.326;12.370;2023-01-28T05:45:03;10.23;;;2.00;;
71435;SDS011;59251;51.326;12.370;2023-01-28T05:47:28;6.10;;;1.80;;
71435;SDS011;59251;51.326;12.370;2023-01-28T05:49:54;8.82;;;2.20;;
71435;SDS011;59251;51.326;12.370;2023-01-28T05:52:19;10.77;;;1.98;;
71435;SDS011;59251;51.326;12.370;2023-01-28T05:54:44;7.50;;;2.17;;
71435;SDS011;59251;51.326;12.370;2023-01-28T05:57:10;8.13;;;2.00;;
71435;SDS011;59251;51.326;12.370;2023-01-28T05:59:35;9.60;;;2.13;;
71435;SDS011;59251;51.326;12.370;2023-01-28T06:02:00;8.73;;;2.33;;
71435;SDS011;59251;51.326;12.370;2023-01-28T06:04:26;8.23;;;2.43;;
71435;SDS011;59251;51.326;12.370;2023-01-28T06:06:51;10.50;;;2.30;;
71435;SDS011;59251;51.326;12.370;2023-01-28T06:09:16;11.82;;;3.22;;
71435;SDS011;59251;51.326;12.370;2023-01-28T06:11:42;13.13;;;5.72;;
71435;SDS011;59251;51.326;12.370;2023-01-28T06:14:08;14.67;;;5.50;;
71435;SDS011;59251;51.326;12.370;2023-01-28T06:16:33;10.98;;;3.40;;
71435;SDS011;59251;51.326;12.370;2023-01-28T06:18:59;8.10;;;2.60;;
71435;SDS011;59251;51.326;12.370;2023-01-28T06:21:24;9.37;;;2.53;;
71435;SDS011;59251;51.326;12.370;2023-01-28T06:23:50;7.57;;;2.40;;
71435;SDS011;59251;51.326;12.370;2023-01-28T06:26:15;8.93;;;2.20;;
71435;SDS011;59251;51.326;12.370;2023-01-28T06:28:41;8.82;;;2.20;;
71435;SDS011;59251;51.326;12.370;2023-01-28T06:31:06;9.97;;;2.27;;
71435;SDS011;59251;51.326;12.370;2023-01-28T06:33:32;8.03;;;2.20;;
71435;SDS011;59251;51.326;12.370;2023-01-28T06:35:57;8.97;;;2.10;;
71435;SDS011;59251;51.326;12.370;2023-01-28T06:38:22;6.87;;;1.80;;
71435;SDS011;59251;51.326;12.370;2023-01-28T06:40:51;8.13;;;2.28;;
71435;SDS011;59251;51.326;12.370;2023-01-28T06:43:19;6.27;;;1.97;;
71435;SDS011;59251;51.326;12.370;2023-01-28T06:45:51;6.22;;;1.67;;
71435;SDS011;59251;51.326;12.370;2023-01-28T06:48:17;7.55;;;1.95;;
71435;SDS011;59251;51.326;12.370;2023-01-28T06:50:42;6.63;;;1.90;;
71435;SDS011;59251;51.326;12.370;2023-01-28T06:53:07;7.57;;;2.23;;
71435;SDS011;59251;51.326;12.370;2023-01-28T06:55:33;7.43;;;1.90;;
71435;SDS011;59251;51.326;12.370;2023-01-28T06:57:58;7.80;;;2.10;;
71435;SDS011;59251;51.326;12.370;2023-01-28T07:00:23;7.10;;;1.77;;
71435;SDS011;59251;51.326;12.370;2023-01-28T07:02:49;7.75;;;1.90;;
71435;SDS011;59251;51.326;12.370;2023-01-28T07:05:14;8.23;;;1.85;;
71435;SDS011;59251;51.326;12.370;2023-01-28T07:07:39;8.03;;;1.63;;
71435;SDS011;59251;51.326;12.370;2023-01-28T07:10:05;9.37;;;2.00;;
71435;SDS011;59251;51.326;12.370;2023-01-28T07:12:31;9.30;;;1.77;;
71435;SDS011;59251;51.326;12.370;2023-01-28T07:14:56;7.57;;;1.83;;
71435;SDS011;59251;51.326;12.370;2023-01-28T07:17:22;8.03;;;1.57;;
71435;SDS011;59251;51.326;12.370;2023-01-28T07:19:47;8.67;;;2.00;;
71435;SDS011;59251;51.326;12.370;2023-01-28T07:22:12;7.70;;;1.70;;
71435;SDS011;59251;51.326;12.370;2023-01-28T07:24:38;7.00;;;1.60;;
71435;SDS011;59251;51.326;12.370;2023-01-28T07:27:03;7.00;;;1.57;;
71435;SDS011;59251;51.326;12.370;2023-01-28T07:29:28;5.23;;;1.17;;
71435;SDS011;59251;51.326;12.370;2023-01-28T07:31:54;8.38;;;1.63;;
71435;SDS011;59251;51.326;12.370;2023-01-28T07:34:19;4.70;;;1.00;;
71435;SDS011;59251;51.326;12.370;2023-01-28T07:36:45;8.13;;;1.40;;
71435;SDS011;59251;51.326;12.370;2023-01-28T07:39:10;5.07;;;1.10;;
71435;SDS011;59251;51.326;12.370;2023-01-28T07:41:35;7.87;;;2.10;;
71435;SDS011;59251;51.326;12.370;2023-01-28T07:44:01;6.17;;;1.17;;
71435;SDS011;59251;51.326;12.370;2023-01-28T07:46:27;5.22;;;0.98;;
71435;SDS011;59251;51.326;12.370;2023-01-28T07:48:52;6.17;;;1.73;;
71435;SDS011;59251;51.326;12.370;2023-01-28T07:51:17;5.72;;;1.10;;
71435;SDS011;59251;51.326;12.370;2023-01-28T07:53:43;6.03;;;0.90;;
71435;SDS011;59251;51.326;12.370;2023-01-28T07:56:08;5.50;;;1.30;;
71435;SDS011;59251;51.326;12.370;2023-01-28T07:58:34;6.03;;;0.93;;
71435;SDS011;59251;51.326;12.370;2023-01-28T08:00:59;6.63;;;1.03;;
71435;SDS011;59251;51.326;12.370;2023-01-28T08:03:26;6.22;;;0.98;;
71435;SDS011;59251;51.326;12.370;2023-01-28T08:05:52;8.40;;;1.05;;
71435;SDS011;59251;51.326;12.370;2023-01-28T08:08:19;6.07;;;1.57;;
71435;SDS011;59251;51.326;12.370;2023-01-28T08:10:46;7.60;;;1.63;;
71435;SDS011;59251;51.326;12.370;2023-01-28T08:13:12;4.82;;;1.02;;
71435;SDS011;59251;51.326;12.370;2023-01-28T08:15:39;6.22;;;1.00;;
71435;SDS011;59251;51.326;12.370;2023-01-28T08:18:05;7.50;;;1.27;;
71435;SDS011;59251;51.326;12.370;2023-01-28T08:20:32;6.75;;;1.42;;
71435;SDS011;59251;51.326;12.370;2023-01-28T08:23:05;8.83;;;1.73;;
71435;SDS011;59251;51.326;12.370;2023-01-28T08:25:43;6.13;;;1.58;;
71435;SDS011;59251;51.326;12.370;2023-01-28T08:28:10;6.43;;;1.33;;
71435;SDS011;59251;51.326;12.370;2023-01-28T08:30:36;8.00;;;1.30;;
71435;SDS011;59251;51.326;12.370;2023-01-28T08:33:03;6.47;;;1.38;;
71435;SDS011;59251;51.326;12.370;2023-01-28T08:35:29;7.63;;;1.48;;
71435;SDS011;59251;51.326;12.370;2023-01-28T08:37:57;6.97;;;1.63;;
71435;SDS011;59251;51.326;12.370;2023-01-28T08:40:24;6.15;;;1.58;;
71435;SDS011;59251;51.326;12.370;2023-01-28T08:42:49;11.13;;;1.60;;
71435;SDS011;59251;51.326;12.370;2023-01-28T08:45:16;8.05;;;1.90;;
71435;SDS011;59251;51.326;12.370;2023-01-28T08:50:17;6.82;;;1.45;;
71435;SDS011;59251;51.326;12.370;2023-01-28T08:52:45;7.05;;;1.70;;
71435;SDS011;59251;51.326;12.370;2023-01-28T08:55:11;6.28;;;1.50;;
71435;SDS011;59251;51.326;12.370;2023-01-28T08:57:37;6.77;;;1.60;;
71435;SDS011;59251;51.326;12.370;2023-01-28T09:00:02;6.45;;;1.50;;
71435;SDS011;59251;51.326;12.370;2023-01-28T09:02:29;9.13;;;1.70;;
71435;SDS011;59251;51.326;12.370;2023-01-28T09:04:54;6.78;;;1.60;;
71435;SDS011;59251;51.326;12.370;2023-01-28T09:07:20;7.07;;;1.47;;
71435;SDS011;59251;51.326;12.370;2023-01-28T09:09:45;7.13;;;1.20;;
71435;SDS011;59251;51.326;12.370;2023-01-28T09:12:10;6.60;;;1.30;;
71435;SDS011;59251;51.326;12.370;2023-01-28T09:14:36;7.03;;;1.57;;
71435;SDS011;59251;51.326;12.370;2023-01-28T09:17:03;6.13;;;1.50;;
71435;SDS011;59251;51.326;12.370;2023-01-28T09:19:28;9.05;;;1.70;;
71435;SDS011;59251;51.326;12.370;2023-01-28T09:21:54;5.60;;;1.50;;
71435;SDS011;59251;51.326;12.370;2023-01-28T09:24:19;5.47;;;1.37;;
71435;SDS011;59251;51.326;12.370;2023-01-28T09:26:47;8.03;;;1.57;;
71435;SDS011;59251;51.326;12.370;2023-01-28T09:29:13;7.90;;;1.50;;
71435;SDS011;59251;51.326;12.370;2023-01-28T09:31:38;6.63;;;1.07;;
71435;SDS011;59251;51.326;12.370;2023-01-28T09:34:04;6.75;;;1.50;;
71435;SDS011;59251;51.326;12.370;2023-01-28T09:36:30;6.07;;;1.30;;
71435;SDS011;59251;51.326;12.370;2023-01-28T09:38:56;5.85;;;1.45;;
71435;SDS011;59251;51.326;12.370;2023-01-28T09:41:26;6.23;;;1.27;;
71435;SDS011;59251;51.326;12.370;2023-01-28T09:44:12;6.00;;;1.20;;
71435;SDS011;59251;51.326;12.370;2023-01-28T09:46:59;6.25;;;1.33;;
71435;SDS011;59251;51.326;12.370;2023-01-28T09:49:36;7.85;;;1.40;;
71435;SDS011;59251;51.326;12.370;2023-01-28T09:52:07;6.22;;;1.23;;
71435;SDS011;59251;51.326;12.370;2023-01-28T09:54:42;5.33;;;1.27;;
71435;SDS011;59251;51.326;12.370;2023-01-28T09:57:16;5.63;;;1.10;;
71435;SDS011;59251;51.326;12.370;2023-01-28T09:59:46;8.35;;;1.23;;
71435;SDS011;59251;51.326;12.370;2023-01-28T10:05:19;7.65;;;1.00;;
71435;SDS011;59251;51.326;12.370;2023-01-28T10:10:54;5.05;;;1.02;;
71435;SDS011;59251;51.326;12.370;2023-01-28T10:13:37;5.50;;;1.30;;
71435;SDS011;59251;51.326;12.370;2023-01-28T10:16:21;7.70;;;1.30;;
71435;SDS011;59251;51.326;12.370;2023-01-28T10:21:48;5.03;;;1.07;;
71435;SDS011;59251;51.326;12.370;2023-01-28T10:24:30;7.47;;;1.40;;
71435;SDS011;59251;51.326;12.370;2023-01-28T10:27:02;7.28;;;1.70;;
71435;SDS011;59251;51.326;12.370;2023-01-28T10:29:38;10.65;;;2.30;;
71435;SDS011;59251;51.326;12.370;2023-01-28T10:34:58;8.13;;;2.10;;
71435;SDS011;59251;51.326;12.370;2023-01-28T10:37:25;10.73;;;2.50;;
71435;SDS011;59251;51.326;12.370;2023-01-28T10:39:52;9.68;;;2.67;;
71435;SDS011;59251;51.326;12.370;2023-01-28T10:45:14;8.98;;;2.75;;
71435;SDS011;59251;51.326;12.370;2023-01-28T10:47:49;9.90;;;2.43;;
71435;SDS011;59251;51.326;12.370;2023-01-28T10:50:19;7.80;;;2.03;;
71435;SDS011;59251;51.326;12.370;2023-01-28T10:52:57;9.35;;;2.63;;
71435;SDS011;59251;51.326;12.370;2023-01-28T10:55:26;18.13;;;4.85;;
71435;SDS011;59251;51.326;12.370;2023-01-28T10:57:54;8.50;;;2.40;;
71435;SDS011;59251;51.326;12.370;2023-01-28T11:00:21;10.40;;;3.00;;
71435;SDS011;59251;51.326;12.370;2023-01-28T11:02:49;10.53;;;2.70;;
71435;SDS011;59251;51.326;12.370;2023-01-28T11:08:01;6.85;;;2.25;;
71435;SDS011;59251;51.326;12.370;2023-01-28T11:10:32;8.32;;;2.30;;
71435;SDS011;59251;51.326;12.370;2023-01-28T11:13:00;8.23;;;2.40;;
71435;SDS011;59251;51.326;12.370;2023-01-28T11:15:28;12.13;;;2.42;;
71435;SDS011;59251;51.326;12.370;2023-01-28T11:17:55;9.57;;;2.10;;
71435;SDS011;59251;51.326;12.370;2023-01-28T11:20:25;10.25;;;2.08;;
71435;SDS011;59251;51.326;12.370;2023-01-28T11:22:52;8.63;;;2.10;;
71435;SDS011;59251;51.326;12.370;2023-01-28T11:27:57;8.00;;;1.95;;
71435;SDS011;59251;51.326;12.370;2023-01-28T11:33:04;7.82;;;1.98;;
71435;SDS011;59251;51.326;12.370;2023-01-28T11:35:38;8.98;;;2.47;;
71435;SDS011;59251;51.326;12.370;2023-01-28T11:38:10;7.47;;;2.07;;
71435;SDS011;59251;51.326;12.370;2023-01-28T11:40:49;9.20;;;2.00;;
71435;SDS011;59251;51.326;12.370;2023-01-28T11:43:28;9.10;;;2.45;;
71435;SDS011;59251;51.326;12.370;2023-01-28T11:53:47;7.88;;;2.40;;
71435;SDS011;59251;51.326;12.370;2023-01-28T11:56:40;10.85;;;2.70;;
71435;SDS011;59251;51.326;12.370;2023-01-28T12:07:45;8.95;;;2.28;;
71435;SDS011;59251;51.326;12.370;2023-01-28T12:10:25;8.27;;;2.30;;
71435;SDS011;59251;51.326;12.370;2023-01-28T12:16:04;11.97;;;1.87;;
71435;SDS011;59251;51.326;12.370;2023-01-28T12:24:37;6.88;;;2.13;;
71435;SDS011;59251;51.326;12.370;2023-01-28T12:27:24;7.57;;;1.98;;
71435;SDS011;59251;51.326;12.370;2023-01-28T12:36:01;7.88;;;2.60;;
71435;SDS011;59251;51.326;12.370;2023-01-28T12:41:21;8.75;;;2.92;;
71435;SDS011;59251;51.326;12.370;2023-01-28T12:47:11;14.60;;;3.30;;
71435;SDS011;59251;51.326;12.370;2023-01-28T12:49:20;10.38;;;2.80;;
71435;SDS011;59251;51.326;12.370;2023-01-28T12:52:00;13.75;;;3.38;;
71435;SDS011;59251;51.326;12.370;2023-01-28T12:54:37;11.57;;;3.13;;
71435;SDS011;59251;51.326;12.370;2023-01-28T12:57:12;9.87;;;3.10;;
71435;SDS011;59251;51.326;12.370;2023-01-28T12:59:50;10.43;;;2.85;;
71435;SDS011;59251;51.326;12.370;2023-01-28T13:02:27;10.60;;;2.92;;
71435;SDS011;59251;51.326;12.370;2023-01-28T13:07:25;11.75;;;3.40;;
71435;SDS011;59251;51.326;12.370;2023-01-28T13:10:03;8.73;;;2.43;;
71435;SDS011;59251;51.326;12.370;2023-01-28T13:12:37;10.18;;;2.65;;
71435;SDS011;59251;51.326;12.370;2023-01-28T13:15:09;7.57;;;2.10;;
71435;SDS011;59251;51.326;12.370;2023-01-28T13:17:37;8.23;;;2.53;;
71435;SDS011;59251;51.326;12.370;2023-01-28T13:20:12;8.83;;;2.80;;
71435;SDS011;59251;51.326;12.370;2023-01-28T13:22:42;9.63;;;3.03;;
71435;SDS011;59251;51.326;12.370;2023-01-28T13:25:19;10.20;;;2.90;;
71435;SDS011;59251;51.326;12.370;2023-01-28T13:30:28;8.77;;;2.70;;
71435;SDS011;59251;51.326;12.370;2023-01-28T13:33:02;6.82;;;2.30;;
71435;SDS011;59251;51.326;12.370;2023-01-28T13:35:31;7.25;;;2.40;;
71435;SDS011;59251;51.326;12.370;2023-01-28T13:37:59;7.17;;;2.30;;
71435;SDS011;59251;51.326;12.370;2023-01-28T13:40:32;8.75;;;2.50;;
71435;SDS011;59251;51.326;12.370;2023-01-28T13:42:59;8.32;;;2.60;;
71435;SDS011;59251;51.326;12.370;2023-01-28T13:45:29;7.82;;;2.72;;
71435;SDS011;59251;51.326;12.370;2023-01-28T13:48:00;9.98;;;2.95;;
71435;SDS011;59251;51.326;12.370;2023-01-28T13:50:39;7.50;;;2.43;;
71435;SDS011;59251;51.326;12.370;2023-01-28T13:56:05;8.43;;;3.10;;
71435;SDS011;59251;51.326;12.370;2023-01-28T13:58:43;9.02;;;2.88;;
71435;SDS011;59251;51.326;12.370;2023-01-28T14:12:23;10.52;;;3.88;;
71435;SDS011;59251;51.326;12.370;2023-01-28T14:15:17;11.90;;;3.45;;
71435;SDS011;59251;51.326;12.370;2023-01-28T14:17:55;10.23;;;3.93;;
71435;SDS011;59251;51.326;12.370;2023-01-28T14:20:29;9.65;;;3.65;;
71435;SDS011;59251;51.326;12.370;2023-01-28T14:23:02;8.23;;;2.97;;
71435;SDS011;59251;51.326;12.370;2023-01-28T14:25:38;8.35;;;3.17;;
71435;SDS011;59251;51.326;12.370;2023-01-28T14:28:13;8.35;;;3.22;;
71435;SDS011;59251;51.326;12.370;2023-01-28T14:30:49;11.63;;;3.10;;
71435;SDS011;59251;51.326;12.370;2023-01-28T14:33:18;7.10;;;3.13;;
71435;SDS011;59251;51.326;12.370;2023-01-28T14:35:46;8.77;;;3.33;;
71435;SDS011;59251;51.326;12.370;2023-01-28T14:38:14;10.27;;;3.13;;
71435;SDS011;59251;51.326;12.370;2023-01-28T14:40:42;9.25;;;3.00;;
71435;SDS011;59251;51.326;12.370;2023-01-28T14:43:14;8.07;;;2.90;;
71435;SDS011;59251;51.326;12.370;2023-01-28T14:45:51;9.32;;;3.17;;
71435;SDS011;59251;51.326;12.370;2023-01-28T14:51:20;12.77;;;3.60;;
71435;SDS011;59251;51.326;12.370;2023-01-28T14:57:24;12.17;;;3.80;;
71435;SDS011;59251;51.326;12.370;2023-01-28T15:00:13;10.82;;;3.65;;
71435;SDS011;59251;51.326;12.370;2023-01-28T15:02:42;10.85;;;3.83;;
71435;SDS011;59251;51.326;12.370;2023-01-28T15:05:09;9.07;;;3.10;;
71435;SDS011;59251;51.326;12.370;2023-01-28T15:07:42;9.50;;;3.50;;
71435;SDS011;59251;51.326;12.370;2023-01-28T15:10:19;13.30;;;3.70;;
71435;SDS011;59251;51.326;12.370;2023-01-28T15:12:53;11.02;;;3.47;;
71435;SDS011;59251;51.326;12.370;2023-01-28T15:17:55;9.27;;;3.55;;
71435;SDS011;59251;51.326;12.370;2023-01-28T15:20:25;8.90;;;3.22;;
71435;SDS011;59251;51.326;12.370;2023-01-28T15:22:50;9.20;;;3.27;;
71435;SDS011;59251;51.326;12.370;2023-01-28T15:25:17;7.80;;;2.70;;
71435;SDS011;59251;51.326;12.370;2023-01-28T15:27:45;10.20;;;3.30;;
71435;SDS011;59251;51.326;12.370;2023-01-28T15:30:22;9.68;;;3.80;;
71435;SDS011;59251;51.326;12.370;2023-01-28T15:33:02;12.10;;;4.10;;
71435;SDS011;59251;51.326;12.370;2023-01-28T15:35:28;11.73;;;3.80;;
71435;SDS011;59251;51.326;12.370;2023-01-28T15:37:54;9.20;;;3.80;;
71435;SDS011;59251;51.326;12.370;2023-01-28T15:40:20;10.77;;;3.72;;
71435;SDS011;59251;51.326;12.370;2023-01-28T15:42:47;11.47;;;4.30;;
71435;SDS011;59251;51.326;12.370;2023-01-28T15:45:15;9.82;;;3.85;;
71435;SDS011;59251;51.326;12.370;2023-01-28T15:47:41;10.18;;;3.90;;
71435;SDS011;59251;51.326;12.370;2023-01-28T15:50:07;10.13;;;3.33;;
71435;SDS011;59251;51.326;12.370;2023-01-28T15:52:40;10.35;;;3.70;;
71435;SDS011;59251;51.326;12.370;2023-01-28T15:55:07;11.25;;;3.63;;
71435;SDS011;59251;51.326;12.370;2023-01-28T15:57:53;10.07;;;3.70;;
71435;SDS011;59251;51.326;12.370;2023-01-28T16:00:19;12.00;;;4.30;;
71435;SDS011;59251;51.326;12.370;2023-01-28T16:02:48;11.70;;;3.67;;
71435;SDS011;59251;51.326;12.370;2023-01-28T16:07:56;11.60;;;4.45;;
71435;SDS011;59251;51.326;12.370;2023-01-28T16:10:26;12.40;;;4.18;;
71435;SDS011;59251;51.326;12.370;2023-01-28T16:13:03;11.63;;;3.97;;
71435;SDS011;59251;51.326;12.370;2023-01-28T16:15:31;11.82;;;4.20;;
71435;SDS011;59251;51.326;12.370;2023-01-28T16:17:57;12.03;;;4.00;;
71435;SDS011;59251;51.326;12.370;2023-01-28T16:20:26;9.85;;;3.75;;
71435;SDS011;59251;51.326;12.370;2023-01-28T16:22:54;11.07;;;3.80;;
71435;SDS011;59251;51.326;12.370;2023-01-28T16:25:34;9.52;;;3.72;;
71435;SDS011;59251;51.326;12.370;2023-01-28T16:28:04;13.68;;;4.32;;
71435;SDS011;59251;51.326;12.370;2023-01-28T16:30:44;12.68;;;4.28;;